createdAt,value
2018-12-08T00:04:00.766Z,14.89
2018-12-08T00:09:10.126Z,11.71
2018-12-08T00:14:19.207Z,20.44
2018-12-08T00:19:28.528Z,15.84
2018-12-08T00:24:37.621Z,18.04
2018-12-08T00:29:46.915Z,18.89
2018-12-08T00:34:56.002Z,17.36
2018-12-08T00:40:05.311Z,18.62
2018-12-08T00:45:14.442Z,17.76
2018-12-08T00:50:23.789Z,18.56
2018-12-08T00:55:32.989Z,17.05
2018-12-08T01:00:42.305Z,20.33
2018-12-08T01:05:51.571Z,19.19
2018-12-08T01:11:01.108Z,10.01
2018-12-08T01:16:10.207Z,15.18
2018-12-08T01:21:19.489Z,18.96
2018-12-08T01:26:28.636Z,14.26
2018-12-08T01:31:37.984Z,16.58
2018-12-08T01:36:47.135Z,17.92
2018-12-08T01:41:56.428Z,21.40
2018-12-08T01:47:05.536Z,17.17
2018-12-08T01:52:14.833Z,18.85
2018-12-08T01:57:24.037Z,20.02
2018-12-08T02:02:33.298Z,18.52
2018-12-08T02:07:42.430Z,18.07
2018-12-08T02:12:51.835Z,42.22
2018-12-08T02:18:01.065Z,21.78
2018-12-08T02:23:10.423Z,22.05
2018-12-08T02:28:19.526Z,19.97
2018-12-08T02:33:28.928Z,21.02
2018-12-08T02:38:38.014Z,25.59
2018-12-08T02:43:47.341Z,29.43
2018-12-08T02:48:56.492Z,27.34
2018-12-08T02:54:05.822Z,19.62
2018-12-08T02:59:15.081Z,22.79
2018-12-08T03:04:24.422Z,22.56
2018-12-08T03:09:33.521Z,20.16
2018-12-08T03:14:42.974Z,20.11
2018-12-08T03:19:52.054Z,19.52
2018-12-08T03:25:01.330Z,22.99
2018-12-08T03:30:10.472Z,20.63
2018-12-08T03:35:19.704Z,22.33
2018-12-08T03:40:28.830Z,23.86
2018-12-08T03:45:38.086Z,25.16
2018-12-08T03:50:47.145Z,26.70
2018-12-08T03:55:56.426Z,22.04
2018-12-08T04:01:05.544Z,25.73
2018-12-08T04:06:14.957Z,24.14
2018-12-08T04:11:24.049Z,22.95
2018-12-08T04:16:33.324Z,23.33
2018-12-08T04:21:42.409Z,27.54
2018-12-08T04:26:51.816Z,24.26
2018-12-08T04:32:00.945Z,25.63
2018-12-08T04:37:10.238Z,20.23
2018-12-08T04:42:19.380Z,22.82
2018-12-08T04:47:28.624Z,25.20
2018-12-08T04:52:37.935Z,26.87
2018-12-08T04:57:47.309Z,23.73
2018-12-08T05:02:56.413Z,28.13
2018-12-08T05:08:05.700Z,29.40
2018-12-08T05:13:14.873Z,25.15
2018-12-08T05:18:24.231Z,30.32
2018-12-08T05:23:33.306Z,25.86
2018-12-08T05:28:42.685Z,21.23
2018-12-08T05:33:51.761Z,24.00
2018-12-08T05:39:01.096Z,24.77
2018-12-08T05:44:10.217Z,27.25
2018-12-08T05:49:19.518Z,30.44
2018-12-08T05:54:28.603Z,28.40
2018-12-08T05:59:38.003Z,25.45
2018-12-08T06:04:47.233Z,32.98
2018-12-08T06:09:56.705Z,24.63
2018-12-08T06:15:05.820Z,24.30
2018-12-08T06:20:15.100Z,25.22
2018-12-08T06:25:24.432Z,25.10
2018-12-08T06:30:33.827Z,31.57
2018-12-08T06:35:42.969Z,31.04
2018-12-08T06:40:52.317Z,35.35
2018-12-08T06:46:01.480Z,27.32
2018-12-08T06:51:10.838Z,23.69
2018-12-08T06:56:19.921Z,32.81
2018-12-08T07:01:29.295Z,23.98
2018-12-08T07:06:38.414Z,27.11
2018-12-08T07:11:47.722Z,20.91
2018-12-08T07:16:56.818Z,26.77
2018-12-08T07:22:06.103Z,24.04
2018-12-08T07:27:15.243Z,23.11
2018-12-08T07:32:24.489Z,27.27
2018-12-08T07:37:33.592Z,26.82
2018-12-08T07:42:42.968Z,29.61
2018-12-08T07:47:52.058Z,21.71
2018-12-08T07:53:01.404Z,30.65
2018-12-08T07:58:10.554Z,24.94
2018-12-08T08:03:20.130Z,26.31
2018-12-08T08:08:29.217Z,22.92
2018-12-08T08:13:38.537Z,27.15
2018-12-08T08:18:47.630Z,25.43
2018-12-08T08:23:57.012Z,24.45
2018-12-08T08:29:06.133Z,22.81
2018-12-08T08:34:15.534Z,21.68
2018-12-08T08:39:24.621Z,25.58
2018-12-08T08:44:33.917Z,21.06
2018-12-08T08:49:43.000Z,24.67
2018-12-08T08:54:52.369Z,22.52
2018-12-08T09:00:01.493Z,26.36
2018-12-08T09:05:10.993Z,24.65
2018-12-08T09:10:20.102Z,22.50
2018-12-08T09:15:29.556Z,20.80
2018-12-08T09:20:38.685Z,25.19
2018-12-08T09:25:47.854Z,18.55
2018-12-08T09:30:56.934Z,17.82
2018-12-08T09:36:06.368Z,22.13
2018-12-08T09:41:15.465Z,19.69
2018-12-08T09:46:24.945Z,18.14
2018-12-08T09:51:34.054Z,21.09
2018-12-08T09:56:43.464Z,17.65
2018-12-08T10:01:52.655Z,23.66
2018-12-08T10:07:01.929Z,18.15
2018-12-08T10:12:11.021Z,17.38
2018-12-08T10:17:20.420Z,16.11
2018-12-08T10:22:29.524Z,20.01
2018-12-08T10:27:38.801Z,26.22
2018-12-08T10:32:48.044Z,21.78
2018-12-08T10:37:57.383Z,24.24
2018-12-08T10:43:06.561Z,15.94
2018-12-08T10:48:15.996Z,19.33
2018-12-08T10:53:25.238Z,17.29
2018-12-08T10:58:34.556Z,20.14
2018-12-08T11:03:43.702Z,18.92
2018-12-08T11:08:53.150Z,17.85
2018-12-08T11:14:02.242Z,18.55
2018-12-08T11:19:11.516Z,15.95
2018-12-08T11:24:20.613Z,17.95
2018-12-08T11:29:30.054Z,21.25
2018-12-08T11:34:39.133Z,20.94
2018-12-08T11:39:48.546Z,20.60
2018-12-08T11:44:57.665Z,20.35
2018-12-08T11:50:07.041Z,20.05
2018-12-08T11:55:16.121Z,22.22
2018-12-08T12:00:25.633Z,17.81
2018-12-08T12:05:34.860Z,17.66
2018-12-08T12:10:44.156Z,19.65
2018-12-08T12:15:53.278Z,18.95
2018-12-08T12:21:06.049Z,16.28
2018-12-08T12:26:05.058Z,14.72
2018-12-08T12:31:14.474Z,18.47
2018-12-08T12:36:23.614Z,17.83
2018-12-08T12:41:33.095Z,18.25
2018-12-08T12:46:42.237Z,18.84
2018-12-08T12:51:51.589Z,14.09
2018-12-08T12:57:00.811Z,16.55
2018-12-08T13:02:10.230Z,13.42
2018-12-08T13:07:19.332Z,13.63
2018-12-08T13:12:28.791Z,16.56
2018-12-08T13:17:37.969Z,12.40
2018-12-08T13:22:47.300Z,19.11
2018-12-08T13:27:56.468Z,16.01
2018-12-08T13:33:05.928Z,18.21
2018-12-08T13:38:13.754Z,23.38
2018-12-08T13:43:23.731Z,17.09
2018-12-08T13:48:33.038Z,13.37
2018-12-08T13:53:42.544Z,14.86
2018-12-08T13:58:51.718Z,23.45
2018-12-08T14:04:01.045Z,19.01
2018-12-08T14:09:10.227Z,24.47
2018-12-08T14:14:19.763Z,24.24
2018-12-08T14:19:28.950Z,25.97
2018-12-08T14:24:36.983Z,30.64
2018-12-08T14:29:46.650Z,24.34
2018-12-08T14:34:56.223Z,28.99
2018-12-08T14:40:04.993Z,34.86
2018-12-08T14:45:18.340Z,32.62
2018-12-08T14:50:17.662Z,27.76
2018-12-08T14:55:27.123Z,36.04
2018-12-08T15:00:36.976Z,32.59
2018-12-08T15:05:46.716Z,32.89
2018-12-08T15:10:56.215Z,29.92
2018-12-08T15:16:04.663Z,31.56
2018-12-08T15:21:15.303Z,32.86
2018-12-08T15:26:13.918Z,33.15
2018-12-08T15:31:23.125Z,33.61
2018-12-08T15:36:32.535Z,31.45
2018-12-08T15:41:41.681Z,29.17
2018-12-08T15:46:51.633Z,31.55
2018-12-08T15:52:00.728Z,25.15
2018-12-08T15:57:09.162Z,32.87
2018-12-08T16:02:18.275Z,27.78
2018-12-08T16:07:27.857Z,20.74
2018-12-08T16:12:37.110Z,21.24
2018-12-08T16:17:47.274Z,18.86
2018-12-08T16:22:46.397Z,20.55
2018-12-08T16:27:55.857Z,20.35
2018-12-08T16:33:05.013Z,21.09
2018-12-08T16:38:14.370Z,17.92
2018-12-08T16:43:23.552Z,20.10
2018-12-08T16:48:34.512Z,21.88
2018-12-08T16:53:33.862Z,20.61
2018-12-08T16:58:55.681Z,23.53
2018-12-08T17:03:44.857Z,26.49
2018-12-08T17:08:54.394Z,28.62
2018-12-08T17:14:03.716Z,28.47
2018-12-08T17:19:13.352Z,28.61
2018-12-08T17:24:22.490Z,26.52
2018-12-08T17:29:32.090Z,22.49
2018-12-08T17:34:41.280Z,24.59
2018-12-08T17:39:51.737Z,22.64
2018-12-08T17:44:50.845Z,25.40
2018-12-08T17:50:00.273Z,19.02
2018-12-08T17:55:09.417Z,16.24
2018-12-08T18:00:18.819Z,12.58
2018-12-08T18:05:28.200Z,10.94
2018-12-08T18:10:37.685Z,10.76
2018-12-08T18:15:46.818Z,15.52
2018-12-08T18:20:56.113Z,13.24
2018-12-08T18:26:05.567Z,16.94
2018-12-08T18:31:14.842Z,18.16
2018-12-08T18:36:23.960Z,18.63
2018-12-08T18:41:33.305Z,21.86
2018-12-08T18:46:43.972Z,19.60
2018-12-08T18:51:43.245Z,18.49
2018-12-08T18:56:52.362Z,15.84
2018-12-08T19:02:01.880Z,17.60
2018-12-08T19:07:11.009Z,20.48
2018-12-08T19:12:20.464Z,19.49
2018-12-08T19:17:29.990Z,15.87
2018-12-08T19:22:39.248Z,13.14
2018-12-08T19:27:48.391Z,16.86
2018-12-08T19:32:57.855Z,16.31
2018-12-08T19:38:07.007Z,18.59
2018-12-08T19:43:16.402Z,15.17
2018-12-08T19:48:25.593Z,18.32
2018-12-08T19:53:34.826Z,16.54
2018-12-08T19:58:44.033Z,21.06
2018-12-08T20:03:53.273Z,16.14
2018-12-08T20:09:02.430Z,18.76
2018-12-08T20:14:11.857Z,26.24
2018-12-08T20:19:21.054Z,23.69
2018-12-08T20:24:30.423Z,27.23
2018-12-08T20:29:39.616Z,27.47
2018-12-08T20:34:49.453Z,31.96
2018-12-08T20:39:58.707Z,30.24
2018-12-08T20:45:08.752Z,33.60
2018-12-08T20:50:07.878Z,34.01
2018-12-08T20:55:17.325Z,26.67
2018-12-08T21:00:27.827Z,11.77
2018-12-08T21:05:27.355Z,14.64
2018-12-08T21:10:35.884Z,24.58
2018-12-08T21:15:45.465Z,25.18
2018-12-08T21:20:54.606Z,15.26
2018-12-08T21:26:03.926Z,15.04
2018-12-08T21:31:13.061Z,14.13
2018-12-08T21:36:22.434Z,20.09
2018-12-08T21:41:31.657Z,17.06
2018-12-08T21:46:40.979Z,22.00
2018-12-08T21:51:50.094Z,26.69
2018-12-08T21:56:59.463Z,31.73
2018-12-08T22:02:08.561Z,36.09
2018-12-08T22:07:17.917Z,32.75
2018-12-08T22:12:27.062Z,45.45
2018-12-08T22:17:36.523Z,35.27
2018-12-08T22:22:45.630Z,40.57
2018-12-08T22:27:54.952Z,29.39
2018-12-08T22:33:04.095Z,25.41
2018-12-08T22:38:13.415Z,25.74
2018-12-08T22:43:22.565Z,16.37
2018-12-08T22:48:33.799Z,22.80
2018-12-08T22:53:40.466Z,24.44
2018-12-08T22:58:49.958Z,28.88
2018-12-08T23:03:59.097Z,25.70
2018-12-08T23:09:08.504Z,26.30
2018-12-08T23:14:17.768Z,32.56
2018-12-08T23:19:27.148Z,31.93
2018-12-08T23:24:36.326Z,24.15
2018-12-08T23:29:45.600Z,22.49
2018-12-08T23:34:54.744Z,28.03
2018-12-08T23:40:03.987Z,22.63
2018-12-08T23:45:13.094Z,28.12
2018-12-08T23:50:22.421Z,28.13
2018-12-08T23:55:31.521Z,28.02
